Hovedside
METAR-TAF:

METAR-TAF

Lufthavner :

Bahrain, Bahrain

breddegrad: 26-16N, lengdegrad: 050-39E, høyde over havet: 2 m

Gjeldene værobservasjon

Denne rapporten ble laget for 35 minutter siden, klokken 15:30 UTC
Vind 17 kt fra Nordvest
Temperatur 35°C
Luftfuktighet 47%
Trykk 1000 hPa
Sikt 10 km eller mer
ingen skyer under 1500 m og ingen bygeskyer

METAR: OBBI 191530Z 32017KT CAVOK 35/22 Q1000 NOSIG

Tid: 19:05 (16:05 UTC)

Varsel

Denne rapporten ble laget for 5 timer og 5 minutter siden, klokken 11:00 UTC
Varsel gyldig fra 19. klokken 12 UTC til 20. klokken 18 UTC
Vind 17 kt fra Nord-nordvest med vindkast opp mot 27 kt
Sikt 10 km eller mer
ingen skyer under 1500 m og ingen bygeskyer
Blir
fra 19. klokken 15 UTC til 19. klokken 17 UTC
Vind 10 kt fra Vest-nordvest
Blir
fra 20. klokken 04 UTC til 20. klokken 06 UTC
Vind 15 kt fra Nord-nordvest med vindkast opp mot 25 kt

TAF: OBBI 191100Z 1912/2018 33017G27KT CAVOK BECMG 1915/1917 30010KT BECMG 2004/2006 33015G25KT

Værobservasjoner og værvarsel for over 4000 flyplasser (METAR- og TAF-rapporter).

Tilgjengelige stasjoner er representert av de røde og gule prikkene på kartet.

Hold musepekeren over prikken for å se navnet på stasjonen.

Klikk så for å se værobservasjoner og -varsler.

For å forandre kartet kan du klikke på den grønne knappen med svart kryss for å zoome inn, på den grønne knappen med strek for å zoome ut, eller på de grønne pilene for å se tilstøtende kart.


METAR-TAF: